createdAt,value
2023-05-10T00:01:35.808Z,100721.66
2023-05-10T00:04:06.236Z,100721.06
2023-05-10T00:06:39.128Z,100718.09
2023-05-10T00:09:11.539Z,100719.81
2023-05-10T00:11:41.279Z,100714.44
2023-05-10T00:14:11.299Z,100716.91
2023-05-10T00:16:44.535Z,100718.50
2023-05-10T00:19:14.318Z,100709.06
2023-05-10T00:21:46.329Z,100709.06
2023-05-10T00:24:16.152Z,100704.66
2023-05-10T00:26:46.172Z,100705.97
2023-05-10T00:29:18.713Z,100712.28
2023-05-10T00:31:49.374Z,100706.53
2023-05-10T00:34:19.039Z,100702.44
2023-05-10T00:36:53.102Z,100710.03
2023-05-10T00:39:23.253Z,100711.47
2023-05-10T00:41:53.315Z,100720.66
2023-05-10T00:44:23.387Z,100711.56
2023-05-10T00:46:53.432Z,100712.84
2023-05-10T00:49:24.181Z,100700.59
2023-05-10T00:51:55.758Z,100703.75
2023-05-10T00:54:25.567Z,100699.00
2023-05-10T00:56:55.535Z,100694.91
2023-05-10T00:59:25.355Z,100695.69
2023-05-10T01:01:55.115Z,100691.19
2023-05-10T01:04:28.008Z,100693.19
2023-05-10T01:06:58.052Z,100689.53
2023-05-10T01:09:29.299Z,100686.78
2023-05-10T01:11:59.050Z,100677.66
2023-05-10T01:14:28.675Z,100678.69
2023-05-10T01:17:01.726Z,100682.69
2023-05-10T01:19:32.591Z,100675.81
2023-05-10T01:22:08.592Z,100684.56
2023-05-10T01:24:44.174Z,100679.16
2023-05-10T01:27:23.631Z,100684.00
2023-05-10T01:30:14.627Z,100684.16
2023-05-10T01:32:53.621Z,100694.78
2023-05-10T01:36:00.507Z,100692.63
2023-05-10T01:38:53.113Z,100692.97
2023-05-10T01:41:23.687Z,100702.09
2023-05-10T01:44:23.998Z,100701.00
2023-05-10T01:47:08.477Z,100701.00
2023-05-10T01:49:40.485Z,100700.44
2023-05-10T01:52:17.254Z,100702.41
2023-05-10T01:54:52.707Z,100698.56
2023-05-10T01:57:21.729Z,100695.88
2023-05-10T01:59:52.912Z,100702.94
2023-05-10T02:02:23.980Z,100696.72
2023-05-10T02:04:54.258Z,100697.84
2023-05-10T02:07:24.088Z,100699.16
2023-05-10T02:09:54.255Z,100694.97
2023-05-10T02:12:25.038Z,100691.63
2023-05-10T02:14:55.256Z,100690.06
2023-05-10T02:17:24.920Z,100684.47
2023-05-10T02:19:54.635Z,100680.66
2023-05-10T02:22:24.694Z,100678.25
2023-05-10T02:24:54.383Z,100673.34
2023-05-10T02:27:24.055Z,100668.44
2023-05-10T02:29:53.808Z,100664.03
2023-05-10T02:32:24.218Z,100666.16
2023-05-10T02:34:54.461Z,100663.13
2023-05-10T02:37:25.486Z,100664.78
2023-05-10T02:39:56.913Z,100666.66
2023-05-10T02:42:31.666Z,100664.16
2023-05-10T02:45:03.764Z,100655.69
2023-05-10T02:47:33.939Z,100658.47
2023-05-10T02:50:03.660Z,100650.13
2023-05-10T02:52:43.000Z,100641.78
2023-05-10T02:55:15.163Z,100631.00
2023-05-10T02:57:56.449Z,100640.47
2023-05-10T03:00:27.182Z,100635.06
2023-05-10T03:02:57.611Z,100630.03
2023-05-10T03:05:27.409Z,100640.31
2023-05-10T03:07:57.098Z,100627.25
2023-05-10T03:10:34.344Z,100629.56
2023-05-10T03:13:07.316Z,100630.50
2023-05-10T03:16:03.063Z,100622.97
2023-05-10T03:19:18.845Z,100626.03
2023-05-10T03:21:50.961Z,100609.28
2023-05-10T03:24:24.013Z,100597.50
2023-05-10T03:26:53.711Z,100599.44
2023-05-10T03:29:23.356Z,100598.22
2023-05-10T03:31:54.276Z,100600.44
2023-05-10T03:34:29.165Z,100599.25
2023-05-10T03:36:58.958Z,100599.50
2023-05-10T03:39:29.194Z,100598.78
2023-05-10T03:41:59.804Z,100597.06
2023-05-10T03:44:30.199Z,100590.91
2023-05-10T03:46:59.968Z,100585.78
2023-05-10T03:49:30.765Z,100578.53
2023-05-10T03:52:00.572Z,100580.41
2023-05-10T03:54:30.445Z,100573.34
2023-05-10T03:57:00.114Z,100567.94
2023-05-10T03:59:29.815Z,100572.41
2023-05-10T04:02:02.434Z,100565.13
2023-05-10T04:04:33.266Z,100558.91
2023-05-10T04:07:03.032Z,100549.00
2023-05-10T04:09:35.415Z,100547.34
2023-05-10T04:12:06.488Z,100551.06
2023-05-10T04:14:37.192Z,100555.06
2023-05-10T04:17:07.985Z,100537.19
2023-05-10T04:19:38.587Z,100534.91
2023-05-10T04:22:08.212Z,100534.06
2023-05-10T04:24:38.250Z,100529.50
2023-05-10T04:27:07.971Z,100527.00
2023-05-10T04:29:37.694Z,100526.09
2023-05-10T04:32:07.831Z,100527.97
2023-05-10T04:34:40.410Z,100526.56
2023-05-10T04:37:10.466Z,100530.72
2023-05-10T04:39:42.170Z,100533.22
2023-05-10T04:42:12.267Z,100529.78
2023-05-10T04:44:43.714Z,100531.44
2023-05-10T04:47:15.687Z,100526.38
2023-05-10T04:49:45.458Z,100521.81
2023-05-10T04:52:15.257Z,100524.03
2023-05-10T04:54:45.702Z,100520.31
2023-05-10T04:57:15.942Z,100513.72
2023-05-10T04:59:50.448Z,100506.06
2023-05-10T05:02:20.505Z,100517.38
2023-05-10T05:04:50.172Z,100512.50
2023-05-10T05:07:20.649Z,100506.66
2023-05-10T05:09:50.305Z,100500.22
2023-05-10T05:12:22.275Z,100498.00
2023-05-10T05:14:51.954Z,100488.81
2023-05-10T05:17:21.599Z,100486.56
2023-05-10T05:19:51.206Z,100484.06
2023-05-10T05:22:22.179Z,100486.56
2023-05-10T05:24:52.009Z,100484.44
2023-05-10T05:27:26.870Z,100483.59
2023-05-10T05:30:00.381Z,100473.41
2023-05-10T05:32:30.507Z,100471.41
2023-05-10T05:35:00.418Z,100462.75
2023-05-10T05:37:30.037Z,100467.50
2023-05-10T05:39:59.751Z,100460.84
2023-05-10T05:42:29.438Z,100460.00
2023-05-10T05:44:59.142Z,100458.97
2023-05-10T05:47:28.991Z,100457.09
2023-05-10T05:49:58.677Z,100457.69
2023-05-10T05:52:28.382Z,100449.00
2023-05-10T05:54:58.203Z,100441.91
2023-05-10T05:57:29.121Z,100434.47
2023-05-10T06:00:01.612Z,100439.84
2023-05-10T06:02:31.659Z,100438.03
2023-05-10T06:05:04.169Z,100432.38
2023-05-10T06:07:33.896Z,100428.25
2023-05-10T06:10:03.780Z,100431.34
2023-05-10T06:12:33.471Z,100429.03
2023-05-10T06:15:03.133Z,100419.13
2023-05-10T06:17:33.226Z,100417.66
2023-05-10T06:20:02.924Z,100425.13
2023-05-10T06:22:32.550Z,100417.50
2023-05-10T06:25:02.290Z,100411.91
2023-05-10T06:27:32.406Z,100421.88
2023-05-10T06:30:11.891Z,100415.06
2023-05-10T06:32:43.998Z,100408.03
2023-05-10T06:35:14.166Z,100402.84
2023-05-10T06:37:44.998Z,100398.28
2023-05-10T06:40:14.878Z,100402.84
2023-05-10T06:42:44.676Z,100403.25
2023-05-10T06:45:14.674Z,100402.41
2023-05-10T06:47:44.692Z,100403.06
2023-05-10T06:50:15.023Z,100401.00
2023-05-10T06:52:46.197Z,100401.81
2023-05-10T06:55:17.137Z,100401.44
2023-05-10T06:57:47.458Z,100395.22
2023-05-10T07:00:21.041Z,100396.88
2023-05-10T07:02:51.219Z,100396.25
2023-05-10T07:05:22.894Z,100394.59
2023-05-10T07:07:52.789Z,100397.94
2023-05-10T07:10:23.969Z,100393.16
2023-05-10T07:12:53.748Z,100396.06
2023-05-10T07:15:23.650Z,100390.44
2023-05-10T07:17:54.564Z,100389.16
2023-05-10T07:20:24.652Z,100389.38
2023-05-10T07:22:54.279Z,100378.00
2023-05-10T07:25:24.863Z,100386.91
2023-05-10T07:27:55.022Z,100382.97
2023-05-10T07:30:24.879Z,100385.88
2023-05-10T07:32:57.433Z,100391.28
2023-05-10T07:35:27.120Z,100381.75
2023-05-10T07:37:56.779Z,100385.94
2023-05-10T07:40:27.593Z,100389.22
2023-05-10T07:42:57.390Z,100388.19
2023-05-10T07:45:28.197Z,100389.84
2023-05-10T07:47:57.998Z,100387.16
2023-05-10T07:50:27.738Z,100386.75
2023-05-10T07:52:57.448Z,100387.34
2023-05-10T07:55:27.892Z,100396.03
2023-05-10T07:57:58.291Z,100397.91
2023-05-10T08:00:28.277Z,100400.19
2023-05-10T08:02:58.159Z,100399.78
2023-05-10T08:05:27.873Z,100401.59
2023-05-10T08:07:57.662Z,100396.63
2023-05-10T08:10:28.325Z,100400.38
2023-05-10T08:12:58.474Z,100403.69
2023-05-10T08:15:29.444Z,100393.50
2023-05-10T08:17:59.192Z,100404.13
2023-05-10T08:20:28.952Z,100397.25
2023-05-10T08:22:58.673Z,100406.00
2023-05-10T08:25:28.600Z,100407.41
2023-05-10T08:27:58.665Z,100404.72
2023-05-10T08:30:28.356Z,100406.78
2023-05-10T08:32:58.985Z,100401.38
2023-05-10T08:35:28.690Z,100397.03
2023-05-10T08:37:58.395Z,100405.09
2023-05-10T08:40:28.384Z,100404.66
2023-05-10T08:43:06.040Z,100405.53
2023-05-10T08:45:36.878Z,100408.03
2023-05-10T08:48:09.230Z,100410.88
2023-05-10T08:50:43.422Z,100399.25
2023-05-10T08:53:15.523Z,100405.31
2023-05-10T08:55:45.401Z,100413.19
2023-05-10T08:58:15.090Z,100411.69
2023-05-10T09:00:44.864Z,100410.88
2023-05-10T09:03:14.892Z,100415.66
2023-05-10T09:05:47.682Z,100419.78
2023-05-10T09:08:19.312Z,100424.56
2023-05-10T09:10:50.047Z,100426.00
2023-05-10T09:13:19.868Z,100419.38
2023-05-10T09:15:49.571Z,100423.09
2023-05-10T09:18:22.449Z,100428.09
2023-05-10T09:20:52.764Z,100434.72
2023-05-10T09:23:25.250Z,100433.69
2023-05-10T09:26:09.065Z,100437.19
2023-05-10T09:28:59.679Z,100437.44
2023-05-10T09:31:50.149Z,100443.59
2023-05-10T09:34:21.687Z,100443.81
2023-05-10T09:37:05.452Z,100444.25
2023-05-10T09:39:42.314Z,100450.66
2023-05-10T09:42:12.500Z,100449.44
2023-05-10T09:44:43.785Z,100450.47
2023-05-10T09:47:16.149Z,100457.53
2023-05-10T09:49:45.810Z,100452.97
2023-05-10T09:52:15.491Z,100456.06
2023-05-10T09:54:48.725Z,100462.28
2023-05-10T09:57:25.525Z,100457.47
2023-05-10T09:59:57.299Z,100453.09
2023-05-10T10:02:33.077Z,100457.03
2023-05-10T10:05:06.313Z,100454.31
2023-05-10T10:07:36.063Z,100457.41
2023-05-10T10:10:08.548Z,100455.47
2023-05-10T10:12:38.718Z,100463.31
2023-05-10T10:15:09.282Z,100467.69
2023-05-10T10:17:40.853Z,100464.97
2023-05-10T10:20:12.192Z,100463.31
2023-05-10T10:22:42.107Z,100462.13
2023-05-10T10:25:13.028Z,100464.16
2023-05-10T10:28:14.415Z,100468.47
2023-05-10T10:30:52.835Z,100469.97
2023-05-10T10:33:39.830Z,100474.69
2023-05-10T10:36:09.772Z,100481.75
2023-05-10T10:38:41.431Z,100485.47
2023-05-10T10:41:24.528Z,100487.53
2023-05-10T10:44:09.638Z,100494.81
2023-05-10T10:46:39.387Z,100491.66
2023-05-10T10:49:13.358Z,100500.38
2023-05-10T10:51:44.298Z,100499.34
2023-05-10T10:54:15.830Z,100501.19
2023-05-10T10:56:46.431Z,100503.88
2023-05-10T10:59:17.068Z,100501.41
2023-05-10T11:01:47.037Z,100507.81
2023-05-10T11:04:16.718Z,100513.22
2023-05-10T11:06:46.645Z,100513.41
2023-05-10T11:09:16.747Z,100522.50
2023-05-10T11:11:58.323Z,100518.56
2023-05-10T11:14:27.937Z,100531.63
2023-05-10T11:16:57.714Z,100525.59
2023-05-10T11:19:28.075Z,100530.16
2023-05-10T11:22:09.870Z,100528.03
2023-05-10T11:24:39.726Z,100535.94
2023-05-10T11:27:09.601Z,100535.72
2023-05-10T11:29:39.294Z,100543.81
2023-05-10T11:32:10.711Z,100554.78
2023-05-10T11:34:40.478Z,100552.28
2023-05-10T11:37:10.218Z,100554.78
2023-05-10T11:39:40.290Z,100554.78
2023-05-10T11:42:12.418Z,100559.56
2023-05-10T11:44:44.002Z,100552.47
2023-05-10T11:47:14.122Z,100565.94
2023-05-10T11:49:47.422Z,100575.88
2023-05-10T11:52:17.171Z,100581.28
2023-05-10T11:55:05.597Z,100582.88
2023-05-10T11:57:35.392Z,100584.38
2023-05-10T12:00:06.324Z,100584.19
2023-05-10T12:02:36.236Z,100580.44
2023-05-10T12:05:07.726Z,100586.25
2023-05-10T12:07:38.115Z,100589.75
2023-05-10T12:10:17.914Z,100597.66
2023-05-10T12:12:49.945Z,100602.56
2023-05-10T12:15:28.238Z,100607.34
2023-05-10T12:17:57.951Z,100607.97
2023-05-10T12:20:30.399Z,100615.88
2023-05-10T12:23:05.764Z,100619.78
2023-05-10T12:25:41.841Z,100619.16
2023-05-10T12:28:12.806Z,100619.16
2023-05-10T12:30:42.503Z,100617.91
2023-05-10T12:33:17.250Z,100619.78
2023-05-10T12:35:56.846Z,100623.44
2023-05-10T12:38:36.459Z,100621.19
2023-05-10T12:41:10.732Z,100629.25
2023-05-10T12:43:40.915Z,100633.44
2023-05-10T12:46:15.567Z,100635.47
2023-05-10T12:48:45.977Z,100633.81
2023-05-10T12:51:20.951Z,100639.88
2023-05-10T12:53:50.622Z,100642.72
2023-05-10T12:56:20.911Z,100642.56
2023-05-10T12:58:50.582Z,100640.03
2023-05-10T13:01:20.328Z,100639.19
2023-05-10T13:03:50.046Z,100654.16
2023-05-10T13:06:23.946Z,100655.19
2023-05-10T13:08:54.351Z,100648.94
2023-05-10T13:11:24.059Z,100654.53
2023-05-10T13:13:54.391Z,100657.03
2023-05-10T13:16:24.082Z,100665.13
2023-05-10T13:18:54.192Z,100665.13
2023-05-10T13:21:26.653Z,100675.06
2023-05-10T13:23:56.730Z,100663.66
2023-05-10T13:26:26.781Z,100669.25
2023-05-10T13:28:58.148Z,100676.50
2023-05-10T13:31:28.019Z,100674.63
2023-05-10T13:33:58.121Z,100671.09
2023-05-10T13:36:27.960Z,100669.25
2023-05-10T13:38:57.997Z,100668.56
2023-05-10T13:41:27.749Z,100672.94
2023-05-10T13:44:00.120Z,100673.97
2023-05-10T13:46:30.592Z,100683.91
2023-05-10T13:49:00.742Z,100684.94
2023-05-10T13:51:30.440Z,100678.50
2023-05-10T13:54:01.690Z,100681.22
2023-05-10T13:56:32.526Z,100670.44
2023-05-10T13:59:02.823Z,100675.81
2023-05-10T14:01:32.629Z,100675.00
2023-05-10T14:04:02.764Z,100671.66
2023-05-10T14:06:33.179Z,100668.78
2023-05-10T14:09:03.517Z,100666.91
2023-05-10T14:11:33.161Z,100670.63
2023-05-10T14:14:02.839Z,100666.91
2023-05-10T14:16:32.604Z,100672.28
2023-05-10T14:19:03.896Z,100675.34
2023-05-10T14:21:33.629Z,100669.81
2023-05-10T14:24:03.368Z,100675.19
2023-05-10T14:26:33.144Z,100671.66
2023-05-10T14:29:02.865Z,100667.94
2023-05-10T14:31:32.779Z,100663.38
2023-05-10T14:34:02.489Z,100658.19
2023-05-10T14:36:32.976Z,100669.81
2023-05-10T14:39:02.743Z,100661.88
2023-05-10T14:41:33.170Z,100676.03
2023-05-10T14:44:03.130Z,100670.63
2023-05-10T14:46:32.823Z,100683.44
2023-05-10T14:49:03.654Z,100681.41
2023-05-10T14:51:34.185Z,100685.13
2023-05-10T14:54:04.901Z,100673.69
2023-05-10T14:56:35.004Z,100686.78
2023-05-10T14:59:06.790Z,100683.28
2023-05-10T15:01:39.826Z,100688.47
2023-05-10T15:04:10.037Z,100688.47
2023-05-10T15:06:40.681Z,100686.78
2023-05-10T15:09:10.348Z,100680.75
2023-05-10T15:11:40.066Z,100685.97
2023-05-10T15:14:10.804Z,100690.31
2023-05-10T15:16:40.626Z,100692.34
2023-05-10T15:19:10.694Z,100686.78
2023-05-10T15:21:41.736Z,100690.31
2023-05-10T15:24:12.185Z,100689.66
2023-05-10T15:26:42.244Z,100698.59
2023-05-10T15:29:12.081Z,100700.44
2023-05-10T15:31:42.055Z,100691.53
2023-05-10T15:34:12.101Z,100693.22
2023-05-10T15:36:41.719Z,100691.53
2023-05-10T15:39:15.644Z,100691.72
2023-05-10T15:41:45.378Z,100687.72
2023-05-10T15:44:14.988Z,100688.56
2023-05-10T15:46:44.837Z,100690.06
2023-05-10T15:49:15.200Z,100696.28
2023-05-10T15:51:45.221Z,100696.28
2023-05-10T15:54:14.920Z,100690.06
2023-05-10T15:56:48.010Z,100688.19
2023-05-10T15:59:18.067Z,100684.00
2023-05-10T16:01:48.164Z,100684.84
2023-05-10T16:04:17.854Z,100686.06
2023-05-10T16:06:47.499Z,100682.16
2023-05-10T16:09:17.719Z,100686.25
2023-05-10T16:11:47.808Z,100691.44
2023-05-10T16:14:19.142Z,100690.97
2023-05-10T16:16:49.195Z,100684.94
2023-05-10T16:19:19.500Z,100689.09
2023-05-10T16:21:50.022Z,100679.75
2023-05-10T16:24:19.728Z,100677.41
2023-05-10T16:26:51.972Z,100673.91
2023-05-10T16:29:21.832Z,100675.38
2023-05-10T16:31:54.255Z,100678.06
2023-05-10T16:34:26.510Z,100679.91
2023-05-10T16:36:56.593Z,100676.22
2023-05-10T16:39:26.796Z,100679.56
2023-05-10T16:41:56.455Z,100679.91
2023-05-10T16:44:26.264Z,100680.75
2023-05-10T16:46:56.469Z,100673.06
2023-05-10T16:49:26.472Z,100671.19
2023-05-10T16:51:56.181Z,100677.63
2023-05-10T16:54:25.838Z,100674.25
2023-05-10T16:56:56.033Z,100668.72
2023-05-10T16:59:25.764Z,100665.53
2023-05-10T17:01:55.860Z,100658.47
2023-05-10T17:04:26.255Z,100657.78
2023-05-10T17:06:56.920Z,100652.41
2023-05-10T17:09:27.013Z,100656.63
2023-05-10T17:11:56.631Z,100654.25
2023-05-10T17:14:26.772Z,100651.78
2023-05-10T17:16:57.186Z,100654.94
2023-05-10T17:19:27.366Z,100648.06
2023-05-10T17:21:57.463Z,100656.31
2023-05-10T17:24:28.539Z,100655.94
2023-05-10T17:26:59.128Z,100652.25
2023-05-10T17:29:30.673Z,100654.00
2023-05-10T17:32:01.085Z,100651.28
2023-05-10T17:34:30.825Z,100656.13
2023-05-10T17:37:00.456Z,100658.63
2023-05-10T17:39:30.160Z,100653.63
2023-05-10T17:42:03.758Z,100662.53
2023-05-10T17:44:36.138Z,100659.19
2023-05-10T17:47:05.909Z,100663.38
2023-05-10T17:49:35.598Z,100657.34
2023-05-10T17:52:06.408Z,100652.31
2023-05-10T17:54:36.187Z,100659.19
2023-05-10T17:57:05.919Z,100657.50
2023-05-10T17:59:35.985Z,100659.38
2023-05-10T18:02:05.705Z,100665.78
2023-05-10T18:04:35.664Z,100661.88
2023-05-10T18:07:05.343Z,100663.94
2023-05-10T18:09:35.745Z,100665.59
2023-05-10T18:12:05.592Z,100662.25
2023-05-10T18:14:40.684Z,100660.41
2023-05-10T18:17:11.969Z,100650.81
2023-05-10T18:19:43.141Z,100659.56
2023-05-10T18:22:12.820Z,100667.25
2023-05-10T18:24:42.468Z,100671.81
2023-05-10T18:27:13.888Z,100669.78
2023-05-10T18:29:43.841Z,100673.88
2023-05-10T18:32:13.572Z,100678.22
2023-05-10T18:34:43.241Z,100673.50
2023-05-10T18:37:13.295Z,100680.44
2023-05-10T18:39:44.083Z,100679.25
2023-05-10T18:42:13.734Z,100677.38
2023-05-10T18:44:44.185Z,100678.41
2023-05-10T18:47:13.803Z,100677.59
2023-05-10T18:49:44.496Z,100688.16
2023-05-10T18:52:14.665Z,100682.13
2023-05-10T18:54:44.982Z,100686.31
2023-05-10T18:57:16.420Z,100682.97
2023-05-10T18:59:46.743Z,100679.88
2023-05-10T19:02:16.513Z,100678.63
2023-05-10T19:04:46.364Z,100675.25
2023-05-10T19:07:16.150Z,100685.19
2023-05-10T19:09:46.918Z,100690.84
2023-05-10T19:12:16.639Z,100686.03
2023-05-10T19:14:49.165Z,100687.41
2023-05-10T19:17:21.333Z,100694.47
2023-05-10T19:19:52.776Z,100699.69
2023-05-10T19:22:36.121Z,100703.00
2023-05-10T19:25:15.171Z,100704.88
2023-05-10T19:27:45.888Z,100702.19
2023-05-10T19:30:16.841Z,100704.03
2023-05-10T19:32:46.625Z,100704.59
2023-05-10T19:35:17.731Z,100705.22
2023-05-10T19:37:49.262Z,100706.09
2023-05-10T19:40:20.485Z,100707.75
2023-05-10T19:42:50.228Z,100714.81
2023-05-10T19:45:20.136Z,100711.47
2023-05-10T19:47:50.794Z,100715.16
2023-05-10T19:50:21.320Z,100717.69
2023-05-10T19:52:51.396Z,100719.28
2023-05-10T19:55:29.513Z,100720.09
2023-05-10T19:57:59.833Z,100729.00
2023-05-10T20:00:30.282Z,100715.91
2023-05-10T20:03:00.202Z,100720.56
2023-05-10T20:05:30.496Z,100724.06
2023-05-10T20:08:00.624Z,100717.22
2023-05-10T20:10:30.460Z,100727.16
2023-05-10T20:13:00.674Z,100717.22
2023-05-10T20:15:31.565Z,100717.69
2023-05-10T20:18:01.265Z,100719.91
2023-05-10T20:20:31.137Z,100721.78
2023-05-10T20:23:00.844Z,100714.25
2023-05-10T20:25:30.943Z,100721.09
2023-05-10T20:28:01.049Z,100724.81
2023-05-10T20:30:30.936Z,100723.63
2023-05-10T20:33:01.998Z,100721.56
2023-05-10T20:35:31.738Z,100718.06
2023-05-10T20:38:03.658Z,100725.94
2023-05-10T20:40:37.090Z,100722.59
2023-05-10T20:43:09.591Z,100729.16
2023-05-10T20:45:39.670Z,100729.16
2023-05-10T20:48:09.918Z,100736.25
2023-05-10T20:50:39.609Z,100743.13
2023-05-10T20:53:09.656Z,100741.63
2023-05-10T20:55:39.469Z,100749.88
2023-05-10T20:58:09.874Z,100746.19
2023-05-10T21:00:39.499Z,100751.63
2023-05-10T21:03:09.236Z,100747.28
2023-05-10T21:05:39.361Z,100756.19
2023-05-10T21:08:09.029Z,100749.25
2023-05-10T21:10:39.138Z,100753.69
2023-05-10T21:13:09.378Z,100760.56
2023-05-10T21:15:39.087Z,100759.72
2023-05-10T21:18:08.936Z,100767.97
2023-05-10T21:20:38.827Z,100778.56
2023-05-10T21:23:09.123Z,100771.66
2023-05-10T21:25:39.130Z,100771.03
2023-05-10T21:28:09.163Z,100770.47
2023-05-10T21:30:38.786Z,100773.91
2023-05-10T21:33:08.677Z,100775.22
2023-05-10T21:35:41.298Z,100775.03
2023-05-10T21:38:13.685Z,100775.78
2023-05-10T21:40:43.842Z,100779.94
2023-05-10T21:43:13.881Z,100774.56
2023-05-10T21:45:43.687Z,100778.47
2023-05-10T21:48:13.388Z,100780.47
2023-05-10T21:50:45.233Z,100779.59
2023-05-10T21:53:15.587Z,100780.59
2023-05-10T21:55:45.285Z,100783.66
2023-05-10T21:58:14.910Z,100784.59
2023-05-10T22:00:45.160Z,100787.13
2023-05-10T22:03:15.017Z,100788.50
2023-05-10T22:05:45.244Z,100787.00
2023-05-10T22:08:15.479Z,100783.94
2023-05-10T22:10:45.146Z,100794.38
2023-05-10T22:13:14.813Z,100788.13
2023-05-10T22:15:46.036Z,100798.34
2023-05-10T22:18:15.847Z,100810.97
2023-05-10T22:20:48.744Z,100812.91
2023-05-10T22:23:18.751Z,100813.38
2023-05-10T22:25:49.457Z,100821.63
2023-05-10T22:28:19.511Z,100820.06
2023-05-10T22:30:50.857Z,100818.31
2023-05-10T22:33:20.493Z,100811.78
2023-05-10T22:35:50.202Z,100822.22
2023-05-10T22:38:19.886Z,100826.38
2023-05-10T22:40:49.651Z,100831.22
2023-05-10T22:43:20.848Z,100830.28
2023-05-10T22:45:50.558Z,100830.69
2023-05-10T22:48:20.251Z,100828.66
2023-05-10T22:50:50.613Z,100830.81
2023-05-10T22:53:21.520Z,100831.31
2023-05-10T22:55:52.583Z,100825.31
2023-05-10T22:58:22.261Z,100822.25
2023-05-10T23:00:52.742Z,100829.13
2023-05-10T23:03:22.349Z,100832.09
2023-05-10T23:05:52.010Z,100833.22
2023-05-10T23:08:21.662Z,100826.94
2023-05-10T23:10:54.099Z,100832.81
2023-05-10T23:13:24.277Z,100832.06
2023-05-10T23:15:55.276Z,100827.50
2023-05-10T23:18:26.005Z,100828.59
2023-05-10T23:20:57.481Z,100834.81
2023-05-10T23:23:31.735Z,100832.25
2023-05-10T23:26:05.125Z,100836.44
2023-05-10T23:28:36.101Z,100830.53
2023-05-10T23:31:06.530Z,100833.50
2023-05-10T23:33:36.189Z,100831.38
2023-05-10T23:36:09.373Z,100831.69
2023-05-10T23:38:40.979Z,100831.78
2023-05-10T23:41:10.604Z,100827.72
2023-05-10T23:43:40.618Z,100826.13
2023-05-10T23:46:10.445Z,100827.72
2023-05-10T23:48:40.237Z,100833.94
2023-05-10T23:51:09.950Z,100835.72
2023-05-10T23:53:39.642Z,100837.19
2023-05-10T23:56:09.886Z,100832.91
2023-05-10T23:58:39.522Z,100828.38
